USCGC Elm — NRPK — position and weather

sailwx.info

Track history (hours):
 
Tides and Currents Weather Stations Pressure Air Temp Water Temp Dewpoint Dewpoint Depression Visibility Wind Speed Wind Dir Waves Ship Positions

USCGC Elm

Last reported at 2016-Dec-03 10:31 UTC. Time now 2016-Dec-03 11:36 UTC.
Position N 34°42' W 076°41'.

Length 68 m; draft 4 m.

Type: Military. MMSI: 366951000.

Date/timePositionNaut miles runAvg speedWind from/ knotsBaromVisibWave heightAir tempDewpointWater temp
2016-Dec-03 10:31N 34°42' W 076°41'0 0.0
2016-Dec-03 09:28N 34°42' W 076°41'0 0.0
2016-Dec-03 08:31N 34°42' W 076°41'0 0.0
2016-Dec-03 07:31N 34°42' W 076°41'0 0.0
2016-Dec-03 06:31N 34°42' W 076°41'0 0.0
2016-Dec-03 05:31N 34°42' W 076°41'0 0.0
2016-Dec-03 04:31N 34°42' W 076°41'0 0.0
2016-Dec-03 03:31N 34°42' W 076°41'0 0.0
2016-Dec-03 02:31N 34°42' W 076°41'0 0.0
2016-Dec-03 01:28N 34°42' W 076°41'0 0.0
2016-Dec-03 00:31N 34°42' W 076°41'0 0.0
2016-Dec-02 23:31N 34°42' W 076°41'0 0.0
2016-Dec-02 22:31N 34°42' W 076°41'0 0.0
2016-Dec-02 21:31N 34°42' W 076°41'0 0.0
2016-Dec-02 20:31N 34°42' W 076°41'0 0.0
2016-Dec-02 19:31N 34°42' W 076°41'0 0.0
2016-Dec-02 18:31N 34°42' W 076°41'0 0.0
2016-Dec-02 17:31N 34°42' W 076°41'0 0.0
2016-Dec-02 16:31N 34°42' W 076°41'0 0.0
2016-Dec-02 15:31N 34°42' W 076°41'0 0.0
2016-Dec-02 14:31N 34°42' W 076°41'0 0.2
2016-Dec-02 13:33N 34°42' W 076°41'4 4.3
2016-Dec-02 12:33N 34°38' W 076°42'0 0.0
2016-Dec-02 11:29N 34°38' W 076°42'0 0.0
2016-Dec-02 10:32N 34°38' W 076°42'0 0.0
2016-Dec-02 09:33N 34°38' W 076°42'0 0.0
2016-Dec-02 08:33N 34°38' W 076°42'0 0.0
2016-Dec-02 07:33N 34°38' W 076°42'0 0.0
2016-Dec-02 06:33N 34°38' W 076°42'0 0.0
2016-Dec-02 05:33N 34°38' W 076°42'0 0.0
2016-Dec-02 04:29N 34°38' W 076°42'0 0.0
2016-Dec-02 03:33N 34°38' W 076°42'0 0.0
2016-Dec-02 02:31N 34°38' W 076°42'4 4.0
2016-Dec-02 01:34N 34°35' W 076°44'1414.1
2016-Dec-02 00:34N 34°24' W 076°55'  
2016-Nov-28 20:20N 34°21' W 076°54'8 9.9
2016-Nov-28 19:32N 34°27' W 076°48'10 9.7
2016-Nov-28 18:33N 34°35' W 076°42'6 5.7
2016-Nov-28 17:33N 34°40' W 076°40'0 0.4
2016-Nov-28 16:33N 34°41' W 076°40'0 0.5
2016-Nov-28 15:33N 34°41' W 076°40'1 0.9
2016-Nov-28 14:30N 34°42' W 076°41'0 0.0
2016-Nov-28 13:33N 34°42' W 076°41'0 0.0
2016-Nov-28 12:33N 34°42' W 076°41'0 0.0
2016-Nov-28 11:33N 34°42' W 076°41'0 0.0
2016-Nov-28 10:29N 34°42' W 076°41'0 0.0
2016-Nov-28 09:33N 34°42' W 076°41'0 0.0
2016-Nov-28 08:32N 34°42' W 076°41'0 0.0
2016-Nov-28 07:32N 34°42' W 076°41'0 0.0
2016-Nov-28 06:32N 34°42' W 076°41'0 0.0
2016-Nov-28 05:32N 34°42' W 076°41'0 0.0
2016-Nov-28 04:32N 34°42' W 076°41'0 0.0
2016-Nov-28 03:33N 34°42' W 076°41'0 0.0
2016-Nov-28 02:33N 34°42' W 076°41'0 0.0
2016-Nov-28 01:33N 34°42' W 076°41'0 0.0
2016-Nov-28 00:29N 34°42' W 076°41'0 0.0
2016-Nov-27 23:32N 34°42' W 076°41'0 0.0
2016-Nov-27 22:32N 34°42' W 076°41'0 0.0
2016-Nov-27 21:32N 34°42' W 076°41'0 0.0
2016-Nov-27 20:32N 34°42' W 076°41'0 0.0
2016-Nov-27 19:33N 34°42' W 076°41'0 0.0
2016-Nov-27 18:33N 34°42' W 076°41'0 0.0
2016-Nov-27 17:33N 34°42' W 076°41'0 0.0
2016-Nov-27 16:33N 34°42' W 076°41'0 0.0
2016-Nov-27 15:26N 34°42' W 076°41'0 0.0
2016-Nov-27 14:32N 34°42' W 076°41'0 0.0
2016-Nov-27 13:32N 34°42' W 076°41'0 0.0
2016-Nov-27 12:32N 34°42' W 076°41'0 0.0
2016-Nov-27 11:32N 34°42' W 076°41'0 0.0
2016-Nov-27 10:29N 34°42' W 076°41'0 0.0
2016-Nov-27 09:33N 34°42' W 076°41'0 0.0
2016-Nov-27 08:33N 34°42' W 076°41'0 0.0
2016-Nov-27 07:33N 34°42' W 076°41'0 0.0
2016-Nov-27 06:33N 34°42' W 076°41'0 0.0
2016-Nov-27 05:33N 34°42' W 076°41'0 0.0
2016-Nov-27 04:32N 34°42' W 076°41'0 0.0
2016-Nov-27 03:32N 34°42' W 076°41'0 0.0
2016-Nov-27 02:32N 34°42' W 076°41'0 0.0
2016-Nov-27 01:32N 34°42' W 076°41'0 0.0
2016-Nov-27 00:29N 34°42' W 076°41'0 0.0
2016-Nov-26 23:33N 34°42' W 076°41'0 0.0
2016-Nov-26 22:33N 34°42' W 076°41'0 0.0
2016-Nov-26 21:33N 34°42' W 076°41'0 0.0
2016-Nov-26 20:30N 34°42' W 076°41'0 0.0
2016-Nov-26 19:32N 34°42' W 076°41'0 0.0
2016-Nov-26 18:32N 34°42' W 076°41'0 0.0
2016-Nov-26 17:33N 34°42' W 076°41'0 0.0
2016-Nov-26 16:33N 34°42' W 076°41'0 0.0
2016-Nov-26 15:33N 34°42' W 076°41'0 0.0
2016-Nov-26 14:33N 34°42' W 076°41'0 0.0
2016-Nov-26 13:33N 34°42' W 076°41'0 0.0
2016-Nov-26 12:32N 34°42' W 076°41'0 0.0
2016-Nov-26 11:32N 34°42' W 076°41'0 0.0
2016-Nov-26 10:32N 34°42' W 076°41'0 0.0
2016-Nov-26 09:33N 34°42' W 076°41'0 0.0
2016-Nov-26 08:33N 34°42' W 076°41'0 0.0
2016-Nov-26 07:33N 34°42' W 076°41'0 0.0
2016-Nov-26 06:33N 34°42' W 076°41'0 0.0
2016-Nov-26 05:33N 34°42' W 076°41'0 0.0
2016-Nov-26 04:32N 34°42' W 076°41'0 0.0
2016-Nov-26 03:32N 34°42' W 076°41'0 0.0
2016-Nov-26 02:33N 34°42' W 076°41'0 0.0
2016-Nov-26 01:33N 34°42' W 076°41'0 0.0
2016-Nov-26 00:33N 34°42' W 076°41'0 0.0
2016-Nov-25 23:33N 34°42' W 076°41'0 0.0
2016-Nov-25 22:32N 34°42' W 076°41'0 0.0
2016-Nov-25 21:32N 34°42' W 076°41'0 0.0
2016-Nov-25 20:30N 34°42' W 076°41'0 0.0
2016-Nov-25 19:33N 34°42' W 076°41'0 0.0
2016-Nov-25 18:33N 34°42' W 076°41'0 0.0
2016-Nov-25 17:33N 34°42' W 076°41'0 0.0
2016-Nov-25 16:33N 34°42' W 076°41'0 0.0
2016-Nov-25 15:33N 34°42' W 076°41'0 0.0
2016-Nov-25 14:33N 34°42' W 076°41'0 0.0
2016-Nov-25 13:32N 34°42' W 076°41'0 0.0
2016-Nov-25 12:30N 34°42' W 076°41'0 0.0
2016-Nov-25 11:32N 34°42' W 076°41'0 0.0
2016-Nov-25 10:33N 34°42' W 076°41'0 0.0
2016-Nov-25 09:33N 34°42' W 076°41'0 0.0
2016-Nov-25 08:33N 34°42' W 076°41'0 0.0
2016-Nov-25 07:30N 34°42' W 076°41'0 0.0
2016-Nov-25 06:33N 34°42' W 076°41'0 0.0
2016-Nov-25 05:33N 34°42' W 076°41'0 0.0
2016-Nov-25 04:33N 34°42' W 076°41'0 0.0
2016-Nov-25 03:33N 34°42' W 076°41'0 0.0
2016-Nov-25 02:33N 34°42' W 076°41'0 0.0
2016-Nov-25 01:33N 34°42' W 076°41'0 0.0
2016-Nov-25 00:32N 34°42' W 076°41'0 0.0
2016-Nov-24 23:33N 34°42' W 076°41'0 0.0
2016-Nov-24 22:33N 34°42' W 076°41'0 0.0
2016-Nov-24 21:30N 34°42' W 076°41'0 0.0
2016-Nov-24 20:33N 34°42' W 076°41'0 0.0
2016-Nov-24 19:33N 34°42' W 076°41'0 0.0
2016-Nov-24 18:33N 34°42' W 076°41'0 0.0
2016-Nov-24 17:33N 34°42' W 076°41'0 0.0
2016-Nov-24 16:30N 34°42' W 076°41'0 0.0
2016-Nov-24 15:30N 34°42' W 076°41'0 0.0
2016-Nov-24 14:32N 34°42' W 076°41'0 0.0
2016-Nov-24 13:33N 34°42' W 076°41'0 0.0
2016-Nov-24 12:33N 34°42' W 076°41'0 0.0
2016-Nov-24 11:33N 34°42' W 076°41'0 0.0
2016-Nov-24 10:33N 34°42' W 076°41'0 0.0
2016-Nov-24 09:33N 34°42' W 076°41'0 0.0
2016-Nov-24 08:33N 34°42' W 076°41'0 0.0
2016-Nov-24 07:33N 34°42' W 076°41'0 0.0
2016-Nov-24 06:33N 34°42' W 076°41'0 0.0
2016-Nov-24 05:32N 34°42' W 076°41'0 0.0
2016-Nov-24 04:32N 34°42' W 076°41'0 0.0
2016-Nov-24 03:32N 34°42' W 076°41'0 0.0
2016-Nov-24 02:33N 34°42' W 076°41'0 0.0
2016-Nov-24 01:33N 34°42' W 076°41'0 0.0
2016-Nov-24 00:33N 34°42' W 076°41'0 0.0
2016-Nov-23 23:33N 34°42' W 076°41'0 0.0
2016-Nov-23 22:33N 34°42' W 076°41'0 0.0
2016-Nov-23 21:30N 34°42' W 076°41'0 0.0
2016-Nov-23 20:32N 34°42' W 076°41'0 0.0
2016-Nov-23 19:33N 34°42' W 076°41'0 0.0
2016-Nov-23 18:33N 34°42' W 076°41'0 0.0
2016-Nov-23 17:33N 34°42' W 076°41'0 0.0
2016-Nov-23 16:33N 34°42' W 076°41'0 0.0
2016-Nov-23 15:33N 34°42' W 076°41'0 0.0
2016-Nov-23 14:32N 34°42' W 076°41'0 0.0
2016-Nov-23 13:32N 34°42' W 076°41'0 0.0
2016-Nov-23 12:33N 34°42' W 076°41'0 0.0
2016-Nov-23 11:33N 34°42' W 076°41'0 0.0
2016-Nov-23 10:33N 34°42' W 076°41'  
Track history (hours):
 
Tides and Currents Weather Stations Pressure Air Temp Water Temp Dewpoint Dewpoint Depression Visibility Wind Speed Wind Dir Waves Ship Positions

USCGC Elm

Last reported at 2016-Dec-03 10:31 UTC. Time now 2016-Dec-03 11:36 UTC.
Position N 34°42' W 076°41'.

Length 68 m; draft 4 m.

Type: Military. MMSI: 366951000.

Date/timePositionNaut miles runAvg speedWind from/ knotsBaromVisibWave heightAir tempDewpointWater temp
2016-Dec-03 10:31N 34°42' W 076°41'0 0.0
2016-Dec-03 09:28N 34°42' W 076°41'0 0.0
2016-Dec-03 08:31N 34°42' W 076°41'0 0.0
2016-Dec-03 07:31N 34°42' W 076°41'0 0.0
2016-Dec-03 06:31N 34°42' W 076°41'0 0.0
2016-Dec-03 05:31N 34°42' W 076°41'0 0.0
2016-Dec-03 04:31N 34°42' W 076°41'0 0.0
2016-Dec-03 03:31N 34°42' W 076°41'0 0.0
2016-Dec-03 02:31N 34°42' W 076°41'0 0.0
2016-Dec-03 01:28N 34°42' W 076°41'0 0.0
2016-Dec-03 00:31N 34°42' W 076°41'0 0.0
2016-Dec-02 23:31N 34°42' W 076°41'0 0.0
2016-Dec-02 22:31N 34°42' W 076°41'0 0.0
2016-Dec-02 21:31N 34°42' W 076°41'0 0.0
2016-Dec-02 20:31N 34°42' W 076°41'0 0.0
2016-Dec-02 19:31N 34°42' W 076°41'0 0.0
2016-Dec-02 18:31N 34°42' W 076°41'0 0.0
2016-Dec-02 17:31N 34°42' W 076°41'0 0.0
2016-Dec-02 16:31N 34°42' W 076°41'0 0.0
2016-Dec-02 15:31N 34°42' W 076°41'0 0.0
2016-Dec-02 14:31N 34°42' W 076°41'0 0.2
2016-Dec-02 13:33N 34°42' W 076°41'4 4.3
2016-Dec-02 12:33N 34°38' W 076°42'0 0.0
2016-Dec-02 11:29N 34°38' W 076°42'0 0.0
2016-Dec-02 10:32N 34°38' W 076°42'0 0.0
2016-Dec-02 09:33N 34°38' W 076°42'0 0.0
2016-Dec-02 08:33N 34°38' W 076°42'0 0.0
2016-Dec-02 07:33N 34°38' W 076°42'0 0.0
2016-Dec-02 06:33N 34°38' W 076°42'0 0.0
2016-Dec-02 05:33N 34°38' W 076°42'0 0.0
2016-Dec-02 04:29N 34°38' W 076°42'0 0.0
2016-Dec-02 03:33N 34°38' W 076°42'0 0.0
2016-Dec-02 02:31N 34°38' W 076°42'4 4.0
2016-Dec-02 01:34N 34°35' W 076°44'1414.1
2016-Dec-02 00:34N 34°24' W 076°55'  
2016-Nov-28 20:20N 34°21' W 076°54'8 9.9
2016-Nov-28 19:32N 34°27' W 076°48'10 9.7
2016-Nov-28 18:33N 34°35' W 076°42'6 5.7
2016-Nov-28 17:33N 34°40' W 076°40'0 0.4
2016-Nov-28 16:33N 34°41' W 076°40'0 0.5
2016-Nov-28 15:33N 34°41' W 076°40'1 0.9
2016-Nov-28 14:30N 34°42' W 076°41'0 0.0
2016-Nov-28 13:33N 34°42' W 076°41'0 0.0
2016-Nov-28 12:33N 34°42' W 076°41'0 0.0
2016-Nov-28 11:33N 34°42' W 076°41'0 0.0
2016-Nov-28 10:29N 34°42' W 076°41'0 0.0
2016-Nov-28 09:33N 34°42' W 076°41'0 0.0
2016-Nov-28 08:32N 34°42' W 076°41'0 0.0
2016-Nov-28 07:32N 34°42' W 076°41'0 0.0
2016-Nov-28 06:32N 34°42' W 076°41'0 0.0
2016-Nov-28 05:32N 34°42' W 076°41'0 0.0
2016-Nov-28 04:32N 34°42' W 076°41'0 0.0
2016-Nov-28 03:33N 34°42' W 076°41'0 0.0
2016-Nov-28 02:33N 34°42' W 076°41'0 0.0
2016-Nov-28 01:33N 34°42' W 076°41'0 0.0
2016-Nov-28 00:29N 34°42' W 076°41'0 0.0
2016-Nov-27 23:32N 34°42' W 076°41'0 0.0
2016-Nov-27 22:32N 34°42' W 076°41'0 0.0
2016-Nov-27 21:32N 34°42' W 076°41'0 0.0
2016-Nov-27 20:32N 34°42' W 076°41'0 0.0
2016-Nov-27 19:33N 34°42' W 076°41'0 0.0
2016-Nov-27 18:33N 34°42' W 076°41'0 0.0
2016-Nov-27 17:33N 34°42' W 076°41'0 0.0
2016-Nov-27 16:33N 34°42' W 076°41'0 0.0
2016-Nov-27 15:26N 34°42' W 076°41'0 0.0
2016-Nov-27 14:32N 34°42' W 076°41'0 0.0
2016-Nov-27 13:32N 34°42' W 076°41'0 0.0
2016-Nov-27 12:32N 34°42' W 076°41'0 0.0
2016-Nov-27 11:32N 34°42' W 076°41'0 0.0
2016-Nov-27 10:29N 34°42' W 076°41'0 0.0
2016-Nov-27 09:33N 34°42' W 076°41'0 0.0
2016-Nov-27 08:33N 34°42' W 076°41'0 0.0
2016-Nov-27 07:33N 34°42' W 076°41'0 0.0
2016-Nov-27 06:33N 34°42' W 076°41'0 0.0
2016-Nov-27 05:33N 34°42' W 076°41'0 0.0
2016-Nov-27 04:32N 34°42' W 076°41'0 0.0
2016-Nov-27 03:32N 34°42' W 076°41'0 0.0
2016-Nov-27 02:32N 34°42' W 076°41'0 0.0
2016-Nov-27 01:32N 34°42' W 076°41'0 0.0
2016-Nov-27 00:29N 34°42' W 076°41'0 0.0
2016-Nov-26 23:33N 34°42' W 076°41'0 0.0
2016-Nov-26 22:33N 34°42' W 076°41'0 0.0
2016-Nov-26 21:33N 34°42' W 076°41'0 0.0
2016-Nov-26 20:30N 34°42' W 076°41'0 0.0
2016-Nov-26 19:32N 34°42' W 076°41'0 0.0
2016-Nov-26 18:32N 34°42' W 076°41'0 0.0
2016-Nov-26 17:33N 34°42' W 076°41'0 0.0
2016-Nov-26 16:33N 34°42' W 076°41'0 0.0
2016-Nov-26 15:33N 34°42' W 076°41'0 0.0
2016-Nov-26 14:33N 34°42' W 076°41'0 0.0
2016-Nov-26 13:33N 34°42' W 076°41'0 0.0
2016-Nov-26 12:32N 34°42' W 076°41'0 0.0
2016-Nov-26 11:32N 34°42' W 076°41'0 0.0
2016-Nov-26 10:32N 34°42' W 076°41'0 0.0
2016-Nov-26 09:33N 34°42' W 076°41'0 0.0
2016-Nov-26 08:33N 34°42' W 076°41'0 0.0
2016-Nov-26 07:33N 34°42' W 076°41'0 0.0
2016-Nov-26 06:33N 34°42' W 076°41'0 0.0
2016-Nov-26 05:33N 34°42' W 076°41'0 0.0
2016-Nov-26 04:32N 34°42' W 076°41'0 0.0
2016-Nov-26 03:32N 34°42' W 076°41'0 0.0
2016-Nov-26 02:33N 34°42' W 076°41'0 0.0
2016-Nov-26 01:33N 34°42' W 076°41'0 0.0
2016-Nov-26 00:33N 34°42' W 076°41'0 0.0
2016-Nov-25 23:33N 34°42' W 076°41'0 0.0
2016-Nov-25 22:32N 34°42' W 076°41'0 0.0
2016-Nov-25 21:32N 34°42' W 076°41'0 0.0
2016-Nov-25 20:30N 34°42' W 076°41'0 0.0
2016-Nov-25 19:33N 34°42' W 076°41'0 0.0
2016-Nov-25 18:33N 34°42' W 076°41'0 0.0
2016-Nov-25 17:33N 34°42' W 076°41'0 0.0
2016-Nov-25 16:33N 34°42' W 076°41'0 0.0
2016-Nov-25 15:33N 34°42' W 076°41'0 0.0
2016-Nov-25 14:33N 34°42' W 076°41'0 0.0
2016-Nov-25 13:32N 34°42' W 076°41'0 0.0
2016-Nov-25 12:30N 34°42' W 076°41'0 0.0
2016-Nov-25 11:32N 34°42' W 076°41'0 0.0
2016-Nov-25 10:33N 34°42' W 076°41'0 0.0
2016-Nov-25 09:33N 34°42' W 076°41'0 0.0
2016-Nov-25 08:33N 34°42' W 076°41'0 0.0
2016-Nov-25 07:30N 34°42' W 076°41'0 0.0
2016-Nov-25 06:33N 34°42' W 076°41'0 0.0
2016-Nov-25 05:33N 34°42' W 076°41'0 0.0
2016-Nov-25 04:33N 34°42' W 076°41'0 0.0
2016-Nov-25 03:33N 34°42' W 076°41'0 0.0
2016-Nov-25 02:33N 34°42' W 076°41'0 0.0
2016-Nov-25 01:33N 34°42' W 076°41'0 0.0
2016-Nov-25 00:32N 34°42' W 076°41'0 0.0
2016-Nov-24 23:33N 34°42' W 076°41'0 0.0
2016-Nov-24 22:33N 34°42' W 076°41'0 0.0
2016-Nov-24 21:30N 34°42' W 076°41'0 0.0
2016-Nov-24 20:33N 34°42' W 076°41'0 0.0
2016-Nov-24 19:33N 34°42' W 076°41'0 0.0
2016-Nov-24 18:33N 34°42' W 076°41'0 0.0
2016-Nov-24 17:33N 34°42' W 076°41'0 0.0
2016-Nov-24 16:30N 34°42' W 076°41'0 0.0
2016-Nov-24 15:30N 34°42' W 076°41'0 0.0
2016-Nov-24 14:32N 34°42' W 076°41'0 0.0
2016-Nov-24 13:33N 34°42' W 076°41'0 0.0
2016-Nov-24 12:33N 34°42' W 076°41'0 0.0
2016-Nov-24 11:33N 34°42' W 076°41'0 0.0
2016-Nov-24 10:33N 34°42' W 076°41'0 0.0
2016-Nov-24 09:33N 34°42' W 076°41'0 0.0
2016-Nov-24 08:33N 34°42' W 076°41'0 0.0
2016-Nov-24 07:33N 34°42' W 076°41'0 0.0
2016-Nov-24 06:33N 34°42' W 076°41'0 0.0
2016-Nov-24 05:32N 34°42' W 076°41'0 0.0
2016-Nov-24 04:32N 34°42' W 076°41'0 0.0
2016-Nov-24 03:32N 34°42' W 076°41'0 0.0
2016-Nov-24 02:33N 34°42' W 076°41'0 0.0
2016-Nov-24 01:33N 34°42' W 076°41'0 0.0
2016-Nov-24 00:33N 34°42' W 076°41'0 0.0
2016-Nov-23 23:33N 34°42' W 076°41'0 0.0
2016-Nov-23 22:33N 34°42' W 076°41'0 0.0
2016-Nov-23 21:30N 34°42' W 076°41'0 0.0
2016-Nov-23 20:32N 34°42' W 076°41'0 0.0
2016-Nov-23 19:33N 34°42' W 076°41'0 0.0
2016-Nov-23 18:33N 34°42' W 076°41'0 0.0
2016-Nov-23 17:33N 34°42' W 076°41'0 0.0
2016-Nov-23 16:33N 34°42' W 076°41'0 0.0
2016-Nov-23 15:33N 34°42' W 076°41'0 0.0
2016-Nov-23 14:32N 34°42' W 076°41'0 0.0
2016-Nov-23 13:32N 34°42' W 076°41'0 0.0
2016-Nov-23 12:33N 34°42' W 076°41'0 0.0
2016-Nov-23 11:33N 34°42' W 076°41'0 0.0
2016-Nov-23 10:33N 34°42' W 076°41'  

Dump ship's entire track history